sensor_id;sensor_type;location;lat;lon;timestamp;pressure;altitude;pressure_sealevel;temperature;humidity
59043;BME280;44826;51.596;5.624;2023-08-30T00:00:32;100811.16;;;13.08;87.24
59043;BME280;44826;51.596;5.624;2023-08-30T00:02:58;100796.53;;;13.03;87.31
59043;BME280;44826;51.596;5.624;2023-08-30T00:05:23;100793.94;;;13.02;87.50
59043;BME280;44826;51.596;5.624;2023-08-30T00:07:48;100805.31;;;13.01;87.52
59043;BME280;44826;51.596;5.624;2023-08-30T00:10:14;100792.38;;;12.98;87.77
59043;BME280;44826;51.596;5.624;2023-08-30T00:12:39;100791.63;;;12.94;87.77
59043;BME280;44826;51.596;5.624;2023-08-30T00:15:05;100794.28;;;12.93;88.23
59043;BME280;44826;51.596;5.624;2023-08-30T00:17:30;100789.19;;;12.89;88.18
59043;BME280;44826;51.596;5.624;2023-08-30T00:19:55;100784.06;;;12.86;88.28
59043;BME280;44826;51.596;5.624;2023-08-30T00:22:21;100782.34;;;12.85;88.25
59043;BME280;44826;51.596;5.624;2023-08-30T00:24:47;100778.94;;;12.83;88.34
59043;BME280;44826;51.596;5.624;2023-08-30T00:27:12;100778.16;;;12.81;88.47
59043;BME280;44826;51.596;5.624;2023-08-30T00:29:38;100780.75;;;12.81;88.73
59043;BME280;44826;51.596;5.624;2023-08-30T00:32:03;100775.59;;;12.80;88.48
59043;BME280;44826;51.596;5.624;2023-08-30T00:34:29;100773.91;;;12.79;88.32
59043;BME280;44826;51.596;5.624;2023-08-30T00:36:54;100774.81;;;12.78;88.39
59043;BME280;44826;51.596;5.624;2023-08-30T00:39:19;100767.03;;;12.76;87.71
59043;BME280;44826;51.596;5.624;2023-08-30T00:41:45;100767.88;;;12.77;87.89
59043;BME280;44826;51.596;5.624;2023-08-30T00:44:10;100767.03;;;12.76;87.69
59043;BME280;44826;51.596;5.624;2023-08-30T00:46:36;100767.03;;;12.76;87.16
59043;BME280;44826;51.596;5.624;2023-08-30T00:49:01;100765.34;;;12.75;87.10
59043;BME280;44826;51.596;5.624;2023-08-30T00:51:27;100765.38;;;12.73;87.00
59043;BME280;44826;51.596;5.624;2023-08-30T00:53:54;100761.13;;;12.71;86.99
59043;BME280;44826;51.596;5.624;2023-08-30T00:56:20;100766.44;;;12.68;87.15
59043;BME280;44826;51.596;5.624;2023-08-30T00:58:47;100762.28;;;12.64;86.75
59043;BME280;44826;51.596;5.624;2023-08-30T01:01:15;100753.63;;;12.62;87.33
59043;BME280;44826;51.596;5.624;2023-08-30T01:03:40;100761.59;;;12.57;87.25
59043;BME280;44826;51.596;5.624;2023-08-30T01:06:06;100756.47;;;12.55;86.83
59043;BME280;44826;51.596;5.624;2023-08-30T01:08:31;100752.25;;;12.51;87.12
59043;BME280;44826;51.596;5.624;2023-08-30T01:10:59;100748.97;;;12.46;87.62
59043;BME280;44826;51.596;5.624;2023-08-30T01:13:30;100757.81;;;12.42;87.70
59043;BME280;44826;51.596;5.624;2023-08-30T01:15:56;100763.13;;;12.39;87.76
59043;BME280;44826;51.596;5.624;2023-08-30T01:18:26;100754.50;;;12.37;87.82
59043;BME280;44826;51.596;5.624;2023-08-30T01:20:52;100752.78;;;12.36;87.68
59043;BME280;44826;51.596;5.624;2023-08-30T01:23:26;100745.03;;;12.34;87.61
59043;BME280;44826;51.596;5.624;2023-08-30T01:25:55;100743.25;;;12.35;87.89
59043;BME280;44826;51.596;5.624;2023-08-30T01:28:23;100739.81;;;12.34;87.90
59043;BME280;44826;51.596;5.624;2023-08-30T01:30:50;100742.41;;;12.34;87.62
59043;BME280;44826;51.596;5.624;2023-08-30T01:33:19;100739.84;;;12.33;87.95
59043;BME280;44826;51.596;5.624;2023-08-30T01:35:46;100738.13;;;12.32;87.80
59043;BME280;44826;51.596;5.624;2023-08-30T01:38:11;100751.31;;;12.28;88.01
59043;BME280;44826;51.596;5.624;2023-08-30T01:40:39;100747.94;;;12.25;88.24
59043;BME280;44826;51.596;5.624;2023-08-30T01:43:07;100747.19;;;12.21;88.11
59043;BME280;44826;51.596;5.624;2023-08-30T01:45:35;100742.06;;;12.18;88.34
59043;BME280;44826;51.596;5.624;2023-08-30T01:48:02;100745.66;;;12.16;88.89
59043;BME280;44826;51.596;5.624;2023-08-30T01:50:28;100737.94;;;12.12;88.74
59043;BME280;44826;51.596;5.624;2023-08-30T01:52:54;100747.56;;;12.10;89.25
59043;BME280;44826;51.596;5.624;2023-08-30T01:55:21;100742.41;;;12.09;89.51
59043;BME280;44826;51.596;5.624;2023-08-30T01:57:47;100745.94;;;12.06;89.57
59043;BME280;44826;51.596;5.624;2023-08-30T02:00:13;100745.22;;;12.03;90.04
59043;BME280;44826;51.596;5.624;2023-08-30T02:02:38;100745.28;;;12.01;89.86
59043;BME280;44826;51.596;5.624;2023-08-30T02:05:04;100744.47;;;11.99;89.83
59043;BME280;44826;51.596;5.624;2023-08-30T02:10:25;100747.97;;;11.96;90.30
59043;BME280;44826;51.596;5.624;2023-08-30T02:12:54;100741.13;;;11.94;90.53
59043;BME280;44826;51.596;5.624;2023-08-30T02:15:21;100731.66;;;11.91;90.65
59043;BME280;44826;51.596;5.624;2023-08-30T02:17:49;100733.44;;;11.89;90.63
59043;BME280;44826;51.596;5.624;2023-08-30T02:20:16;100730.03;;;11.87;90.89
59043;BME280;44826;51.596;5.624;2023-08-30T02:22:41;100732.72;;;11.86;91.01
59043;BME280;44826;51.596;5.624;2023-08-30T02:25:07;100723.13;;;11.86;90.74
59043;BME280;44826;51.596;5.624;2023-08-30T02:27:33;100723.94;;;11.88;91.06
59043;BME280;44826;51.596;5.624;2023-08-30T02:29:59;100721.41;;;11.85;91.05
59043;BME280;44826;51.596;5.624;2023-08-30T02:32:25;100719.72;;;11.84;91.10
59043;BME280;44826;51.596;5.624;2023-08-30T02:34:51;100725.88;;;11.81;91.14
59043;BME280;44826;51.596;5.624;2023-08-30T02:37:17;100718.16;;;11.78;91.17
59043;BME280;44826;51.596;5.624;2023-08-30T02:39:43;100713.91;;;11.76;92.10
59043;BME280;44826;51.596;5.624;2023-08-30T02:42:08;100712.16;;;11.76;91.75
59043;BME280;44826;51.596;5.624;2023-08-30T02:44:33;100709.59;;;11.75;91.73
59043;BME280;44826;51.596;5.624;2023-08-30T02:46:59;100707.91;;;11.74;92.12
59043;BME280;44826;51.596;5.624;2023-08-30T02:49:24;100708.81;;;11.71;92.17
59043;BME280;44826;51.596;5.624;2023-08-30T02:51:49;100709.72;;;11.70;92.27
59043;BME280;44826;51.596;5.624;2023-08-30T02:54:15;100704.56;;;11.68;92.29
59043;BME280;44826;51.596;5.624;2023-08-30T02:56:41;100701.97;;;11.68;92.79
59043;BME280;44826;51.596;5.624;2023-08-30T02:59:08;100695.88;;;11.69;92.69
59043;BME280;44826;51.596;5.624;2023-08-30T03:01:33;100695.88;;;11.69;92.97
59043;BME280;44826;51.596;5.624;2023-08-30T03:03:59;100692.34;;;11.71;93.14
59043;BME280;44826;51.596;5.624;2023-08-30T03:06:24;100689.66;;;11.74;92.84
59043;BME280;44826;51.596;5.624;2023-08-30T03:08:49;100686.94;;;11.77;93.23
59043;BME280;44826;51.596;5.624;2023-08-30T03:11:15;100678.09;;;11.81;93.12
59043;BME280;44826;51.596;5.624;2023-08-30T03:13:40;100687.59;;;11.83;93.21
59043;BME280;44826;51.596;5.624;2023-08-30T03:16:15;100676.31;;;11.83;93.29
59043;BME280;44826;51.596;5.624;2023-08-30T03:18:42;100683.97;;;11.88;93.37
59043;BME280;44826;51.596;5.624;2023-08-30T03:21:08;100679.63;;;11.88;93.45
59043;BME280;44826;51.596;5.624;2023-08-30T03:23:33;100683.03;;;11.90;93.63
59043;BME280;44826;51.596;5.624;2023-08-30T03:26:10;100682.06;;;11.93;94.13
59043;BME280;44826;51.596;5.624;2023-08-30T03:28:36;100675.91;;;11.95;93.86
59043;BME280;44826;51.596;5.624;2023-08-30T03:31:01;100675.81;;;11.98;93.57
59043;BME280;44826;51.596;5.624;2023-08-30T03:33:26;100673.16;;;12.00;93.07
59043;BME280;44826;51.596;5.624;2023-08-30T03:35:52;100673.09;;;12.02;93.05
59043;BME280;44826;51.596;5.624;2023-08-30T03:38:17;100658.34;;;12.01;93.34
59043;BME280;44826;51.596;5.624;2023-08-30T03:40:42;100648.84;;;11.99;93.21
59043;BME280;44826;51.596;5.624;2023-08-30T03:43:07;100645.38;;;11.99;93.19
59043;BME280;44826;51.596;5.624;2023-08-30T03:45:36;100643.66;;;11.98;93.27
59043;BME280;44826;51.596;5.624;2023-08-30T03:48:03;100642.78;;;11.97;93.57
59043;BME280;44826;51.596;5.624;2023-08-30T03:50:28;100639.41;;;11.95;93.84
59043;BME280;44826;51.596;5.624;2023-08-30T03:52:53;100634.19;;;11.95;93.81
59043;BME280;44826;51.596;5.624;2023-08-30T03:55:19;100626.41;;;11.94;93.69
59043;BME280;44826;51.596;5.624;2023-08-30T03:57:44;100622.09;;;11.93;93.68
59043;BME280;44826;51.596;5.624;2023-08-30T04:00:10;100616.94;;;11.91;93.95
59043;BME280;44826;51.596;5.624;2023-08-30T04:02:36;100613.53;;;11.89;94.23
59043;BME280;44826;51.596;5.624;2023-08-30T04:05:01;100605.66;;;11.91;94.46
59043;BME280;44826;51.596;5.624;2023-08-30T04:07:26;100608.22;;;11.92;94.43
59043;BME280;44826;51.596;5.624;2023-08-30T04:09:52;100603.06;;;11.91;95.08
59043;BME280;44826;51.596;5.624;2023-08-30T04:12:17;100595.28;;;11.89;94.48
59043;BME280;44826;51.596;5.624;2023-08-30T04:14:42;100590.97;;;11.88;94.90
59043;BME280;44826;51.596;5.624;2023-08-30T04:17:07;100587.56;;;11.86;95.09
59043;BME280;44826;51.596;5.624;2023-08-30T04:19:33;100579.84;;;11.83;95.34
59043;BME280;44826;51.596;5.624;2023-08-30T04:21:58;100574.72;;;11.81;95.76
59043;BME280;44826;51.596;5.624;2023-08-30T04:24:23;100583.38;;;11.82;95.67
59043;BME280;44826;51.596;5.624;2023-08-30T04:26:48;100585.88;;;11.85;96.21
59043;BME280;44826;51.596;5.624;2023-08-30T04:29:17;100591.81;;;11.89;96.39
59043;BME280;44826;51.596;5.624;2023-08-30T04:31:43;100587.38;;;11.92;96.88
59043;BME280;44826;51.596;5.624;2023-08-30T04:34:08;100576.16;;;11.90;97.02
59043;BME280;44826;51.596;5.624;2023-08-30T04:36:34;100577.03;;;11.89;97.01
59043;BME280;44826;51.596;5.624;2023-08-30T04:38:59;100570.19;;;11.87;97.02
59043;BME280;44826;51.596;5.624;2023-08-30T04:41:24;100576.25;;;11.87;97.14
59043;BME280;44826;51.596;5.624;2023-08-30T04:43:50;100577.16;;;11.86;97.05
59043;BME280;44826;51.596;5.624;2023-08-30T04:46:15;100583.16;;;11.88;96.84
59043;BME280;44826;51.596;5.624;2023-08-30T04:48:40;100572.75;;;11.88;97.14
59043;BME280;44826;51.596;5.624;2023-08-30T04:51:05;100582.16;;;11.92;97.61
59043;BME280;44826;51.596;5.624;2023-08-30T04:53:31;100583.78;;;11.95;97.69
59043;BME280;44826;51.596;5.624;2023-08-30T04:55:56;100576.84;;;11.95;98.12
59043;BME280;44826;51.596;5.624;2023-08-30T04:58:21;100574.13;;;11.98;97.80
59043;BME280;44826;51.596;5.624;2023-08-30T05:00:46;100573.19;;;12.01;98.26
59043;BME280;44826;51.596;5.624;2023-08-30T05:03:12;100569.59;;;12.04;98.43
59043;BME280;44826;51.596;5.624;2023-08-30T05:05:37;100567.81;;;12.06;98.43
59043;BME280;44826;51.596;5.624;2023-08-30T05:08:03;100563.31;;;12.09;98.61
59043;BME280;44826;51.596;5.624;2023-08-30T05:10:29;100560.66;;;12.11;98.71
59043;BME280;44826;51.596;5.624;2023-08-30T05:12:54;100552.78;;;12.12;98.69
59043;BME280;44826;51.596;5.624;2023-08-30T05:15:19;100552.66;;;12.16;98.63
59043;BME280;44826;51.596;5.624;2023-08-30T05:17:45;100550.00;;;12.17;98.56
59043;BME280;44826;51.596;5.624;2023-08-30T05:20:11;100550.84;;;12.18;98.75
59043;BME280;44826;51.596;5.624;2023-08-30T05:22:36;100544.66;;;12.20;98.53
59043;BME280;44826;51.596;5.624;2023-08-30T05:25:01;100548.06;;;12.22;98.69
59043;BME280;44826;51.596;5.624;2023-08-30T05:27:27;100545.34;;;12.25;98.45
59043;BME280;44826;51.596;5.624;2023-08-30T05:29:52;100541.72;;;12.29;98.74
59043;BME280;44826;51.596;5.624;2023-08-30T05:32:18;100551.13;;;12.34;98.54
59043;BME280;44826;51.596;5.624;2023-08-30T05:34:43;100547.50;;;12.38;98.61
59043;BME280;44826;51.596;5.624;2023-08-30T05:37:08;100545.59;;;12.41;98.16
59043;BME280;44826;51.596;5.624;2023-08-30T05:39:34;100540.28;;;12.44;97.80
59043;BME280;44826;51.596;5.624;2023-08-30T05:42:00;100531.53;;;12.45;97.73
59043;BME280;44826;51.596;5.624;2023-08-30T05:44:25;100527.94;;;12.48;97.69
59043;BME280;44826;51.596;5.624;2023-08-30T05:46:51;100522.63;;;12.51;97.50
59043;BME280;44826;51.596;5.624;2023-08-30T05:49:16;100519.91;;;12.54;97.62
59043;BME280;44826;51.596;5.624;2023-08-30T05:51:41;100517.22;;;12.56;97.65
59043;BME280;44826;51.596;5.624;2023-08-30T05:54:07;100519.78;;;12.57;97.64
59043;BME280;44826;51.596;5.624;2023-08-30T05:56:32;100525.78;;;12.59;97.96
59043;BME280;44826;51.596;5.624;2023-08-30T05:58:57;100527.44;;;12.62;97.70
59043;BME280;44826;51.596;5.624;2023-08-30T06:01:23;100529.06;;;12.65;97.55
59043;BME280;44826;51.596;5.624;2023-08-30T06:03:48;100531.53;;;12.68;97.40
59043;BME280;44826;51.596;5.624;2023-08-30T06:06:15;100535.75;;;12.72;97.50
59043;BME280;44826;51.596;5.624;2023-08-30T06:08:40;100523.47;;;12.74;97.87
59043;BME280;44826;51.596;5.624;2023-08-30T06:11:06;100520.75;;;12.77;97.27
59043;BME280;44826;51.596;5.624;2023-08-30T06:13:31;100518.88;;;12.81;97.40
59043;BME280;44826;51.596;5.624;2023-08-30T06:15:56;100522.25;;;12.83;97.21
59043;BME280;44826;51.596;5.624;2023-08-30T06:18:21;100516.00;;;12.87;97.28
59043;BME280;44826;51.596;5.624;2023-08-30T06:20:47;100515.81;;;12.92;96.95
59043;BME280;44826;51.596;5.624;2023-08-30T06:23:13;100514.84;;;12.94;97.06
59043;BME280;44826;51.596;5.624;2023-08-30T06:25:39;100511.28;;;12.97;96.96
59043;BME280;44826;51.596;5.624;2023-08-30T06:28:04;100509.38;;;13.00;97.14
59043;BME280;44826;51.596;5.624;2023-08-30T06:30:30;100510.16;;;13.02;96.79
59043;BME280;44826;51.596;5.624;2023-08-30T06:32:56;100501.34;;;13.05;97.25
59043;BME280;44826;51.596;5.624;2023-08-30T06:35:22;100503.81;;;13.08;96.99
59043;BME280;44826;51.596;5.624;2023-08-30T06:37:47;100508.94;;;13.11;97.09
59043;BME280;44826;51.596;5.624;2023-08-30T06:40:12;100504.50;;;13.13;96.90
59043;BME280;44826;51.596;5.624;2023-08-30T06:42:38;100512.97;;;13.18;96.84
59043;BME280;44826;51.596;5.624;2023-08-30T06:45:03;100505.91;;;13.20;96.88
59043;BME280;44826;51.596;5.624;2023-08-30T06:47:29;100504.97;;;13.23;96.56
59043;BME280;44826;51.596;5.624;2023-08-30T06:49:54;100508.31;;;13.25;96.80
59043;BME280;44826;51.596;5.624;2023-08-30T06:52:19;100523.03;;;13.28;96.14
59043;BME280;44826;51.596;5.624;2023-08-30T06:54:45;100521.25;;;13.28;95.86
59043;BME280;44826;51.596;5.624;2023-08-30T06:57:10;100517.75;;;13.29;96.04
59043;BME280;44826;51.596;5.624;2023-08-30T06:59:35;100535.91;;;13.32;95.79
59043;BME280;44826;51.596;5.624;2023-08-30T07:02:01;100535.81;;;13.34;96.53
59043;BME280;44826;51.596;5.624;2023-08-30T07:04:27;100533.22;;;13.34;96.41
59043;BME280;44826;51.596;5.624;2023-08-30T07:06:53;100530.59;;;13.34;96.98
59043;BME280;44826;51.596;5.624;2023-08-30T07:09:18;100528.00;;;13.34;97.25
59043;BME280;44826;51.596;5.624;2023-08-30T07:11:44;100528.91;;;13.33;97.01
59043;BME280;44826;51.596;5.624;2023-08-30T07:14:12;100529.84;;;13.32;97.58
59043;BME280;44826;51.596;5.624;2023-08-30T07:16:39;100525.56;;;13.29;97.48
59043;BME280;44826;51.596;5.624;2023-08-30T07:19:04;100525.66;;;13.28;97.52
59043;BME280;44826;51.596;5.624;2023-08-30T07:21:30;100518.72;;;13.27;98.06
59043;BME280;44826;51.596;5.624;2023-08-30T07:23:55;100517.03;;;13.26;98.46
59043;BME280;44826;51.596;5.624;2023-08-30T07:26:20;100496.34;;;13.21;99.01
59043;BME280;44826;51.596;5.624;2023-08-30T07:28:45;100490.38;;;13.17;99.44
59043;BME280;44826;51.596;5.624;2023-08-30T07:31:11;100483.53;;;13.15;99.74
59043;BME280;44826;51.596;5.624;2023-08-30T07:33:39;100492.28;;;13.14;100.00
59043;BME280;44826;51.596;5.624;2023-08-30T07:36:04;100487.97;;;13.13;100.00
59043;BME280;44826;51.596;5.624;2023-08-30T07:38:30;100481.13;;;13.10;100.00
59043;BME280;44826;51.596;5.624;2023-08-30T07:40:55;100482.03;;;13.09;100.00
59043;BME280;44826;51.596;5.624;2023-08-30T07:43:21;100473.31;;;13.09;100.00
59043;BME280;44826;51.596;5.624;2023-08-30T07:45:47;100474.25;;;13.08;100.00
59043;BME280;44826;51.596;5.624;2023-08-30T07:48:12;100471.69;;;13.06;100.00
59043;BME280;44826;51.596;5.624;2023-08-30T07:50:38;100477.00;;;13.04;100.00
59043;BME280;44826;51.596;5.624;2023-08-30T07:53:03;100474.38;;;13.04;100.00
59043;BME280;44826;51.596;5.624;2023-08-30T07:55:28;100463.94;;;13.04;100.00
59043;BME280;44826;51.596;5.624;2023-08-30T07:57:53;100470.13;;;13.02;100.00
59043;BME280;44826;51.596;5.624;2023-08-30T08:00:19;100465.81;;;13.01;100.00
59043;BME280;44826;51.596;5.624;2023-08-30T08:02:44;100456.28;;;13.00;100.00
59043;BME280;44826;51.596;5.624;2023-08-30T08:05:09;100452.91;;;12.98;100.00
59043;BME280;44826;51.596;5.624;2023-08-30T08:07:38;100461.59;;;12.98;100.00
59043;BME280;44826;51.596;5.624;2023-08-30T08:10:04;100457.28;;;12.97;100.00
59043;BME280;44826;51.596;5.624;2023-08-30T08:12:30;100459.09;;;12.95;100.00
59043;BME280;44826;51.596;5.624;2023-08-30T08:14:55;100461.66;;;12.97;100.00
59043;BME280;44826;51.596;5.624;2023-08-30T08:17:20;100454.66;;;12.97;100.00
59043;BME280;44826;51.596;5.624;2023-08-30T08:19:46;100448.53;;;12.98;100.00
59043;BME280;44826;51.596;5.624;2023-08-30T08:22:11;100461.66;;;12.97;100.00
59043;BME280;44826;51.596;5.624;2023-08-30T08:24:36;100454.66;;;12.97;100.00
59043;BME280;44826;51.596;5.624;2023-08-30T08:27:02;100455.56;;;12.96;100.00
59043;BME280;44826;51.596;5.624;2023-08-30T08:29:27;100450.44;;;12.95;100.00
59043;BME280;44826;51.596;5.624;2023-08-30T08:31:53;100451.34;;;12.94;100.00
59043;BME280;44826;51.596;5.624;2023-08-30T08:34:19;100455.56;;;12.96;100.00
59043;BME280;44826;51.596;5.624;2023-08-30T08:36:44;100447.69;;;12.98;100.00
59043;BME280;44826;51.596;5.624;2023-08-30T08:39:09;100439.84;;;12.98;100.00
59043;BME280;44826;51.596;5.624;2023-08-30T08:41:40;100442.47;;;12.98;100.00
59043;BME280;44826;51.596;5.624;2023-08-30T08:44:06;100441.47;;;13.00;100.00
59043;BME280;44826;51.596;5.624;2023-08-30T08:46:34;100442.31;;;13.01;100.00
59043;BME280;44826;51.596;5.624;2023-08-30T08:49:04;100445.72;;;13.03;100.00
59043;BME280;44826;51.596;5.624;2023-08-30T08:51:31;100443.97;;;13.03;100.00
59043;BME280;44826;51.596;5.624;2023-08-30T08:54:02;100443.88;;;13.05;100.00
59043;BME280;44826;51.596;5.624;2023-08-30T08:56:30;100442.91;;;13.08;100.00
59043;BME280;44826;51.596;5.624;2023-08-30T08:58:56;100442.91;;;13.08;100.00
59043;BME280;44826;51.596;5.624;2023-08-30T09:01:21;100440.25;;;13.09;100.00
59043;BME280;44826;51.596;5.624;2023-08-30T09:03:47;100432.41;;;13.09;100.00
59043;BME280;44826;51.596;5.624;2023-08-30T09:06:13;100433.19;;;13.11;100.00
59043;BME280;44826;51.596;5.624;2023-08-30T09:08:40;100434.88;;;13.12;100.00
59043;BME280;44826;51.596;5.624;2023-08-30T09:11:05;100436.59;;;13.13;100.00
59043;BME280;44826;51.596;5.624;2023-08-30T09:13:30;100438.28;;;13.14;100.00
59043;BME280;44826;51.596;5.624;2023-08-30T09:15:56;100433.06;;;13.14;100.00
59043;BME280;44826;51.596;5.624;2023-08-30T09:18:22;100433.81;;;13.16;100.00
59043;BME280;44826;51.596;5.624;2023-08-30T09:20:52;100433.66;;;13.21;100.00
59043;BME280;44826;51.596;5.624;2023-08-30T09:23:18;100441.97;;;13.29;100.00
59043;BME280;44826;51.596;5.624;2023-08-30T09:25:45;100446.94;;;13.35;100.00
59043;BME280;44826;51.596;5.624;2023-08-30T09:28:10;100452.88;;;13.39;100.00
59043;BME280;44826;51.596;5.624;2023-08-30T09:30:36;100447.56;;;13.42;100.00
59043;BME280;44826;51.596;5.624;2023-08-30T09:33:02;100434.16;;;13.50;100.00
59043;BME280;44826;51.596;5.624;2023-08-30T09:35:31;100437.91;;;13.63;100.00
59043;BME280;44826;51.596;5.624;2023-08-30T09:37:56;100439.13;;;13.75;100.00
59043;BME280;44826;51.596;5.624;2023-08-30T09:40:21;100442.06;;;13.87;100.00
59043;BME280;44826;51.596;5.624;2023-08-30T09:42:47;100442.44;;;13.98;100.00
59043;BME280;44826;51.596;5.624;2023-08-30T09:45:21;100439.53;;;14.04;100.00
59043;BME280;44826;51.596;5.624;2023-08-30T09:47:48;100434.16;;;14.07;100.00
59043;BME280;44826;51.596;5.624;2023-08-30T09:50:17;100432.31;;;14.09;100.00
59043;BME280;44826;51.596;5.624;2023-08-30T09:52:43;100440.16;;;14.09;100.00
59043;BME280;44826;51.596;5.624;2023-08-30T09:55:09;100436.72;;;14.09;100.00
59043;BME280;44826;51.596;5.624;2023-08-30T09:57:35;100435.03;;;14.08;100.00
59043;BME280;44826;51.596;5.624;2023-08-30T10:00:02;100430.63;;;14.08;100.00
59043;BME280;44826;51.596;5.624;2023-08-30T10:02:30;100440.94;;;14.11;100.00
59043;BME280;44826;51.596;5.624;2023-08-30T10:04:57;100434.03;;;14.10;100.00
59043;BME280;44826;51.596;5.624;2023-08-30T10:07:23;100430.50;;;14.11;100.00
59043;BME280;44826;51.596;5.624;2023-08-30T10:09:50;100433.56;;;14.20;100.00
59043;BME280;44826;51.596;5.624;2023-08-30T10:12:20;100432.22;;;14.30;100.00
59043;BME280;44826;51.596;5.624;2023-08-30T10:14:46;100423.16;;;14.37;100.00
59043;BME280;44826;51.596;5.624;2023-08-30T10:17:14;100423.63;;;14.46;100.00
59043;BME280;44826;51.596;5.624;2023-08-30T10:19:42;100417.94;;;14.55;100.00
59043;BME280;44826;51.596;5.624;2023-08-30T10:22:08;100409.88;;;14.60;100.00
59043;BME280;44826;51.596;5.624;2023-08-30T10:24:54;100411.97;;;14.70;100.00
59043;BME280;44826;51.596;5.624;2023-08-30T10:27:21;100407.13;;;14.80;100.00
59043;BME280;44826;51.596;5.624;2023-08-30T10:29:49;100405.81;;;14.89;100.00
59043;BME280;44826;51.596;5.624;2023-08-30T10:32:22;100409.66;;;14.99;100.00
59043;BME280;44826;51.596;5.624;2023-08-30T10:34:51;100411.66;;;15.12;100.00
59043;BME280;44826;51.596;5.624;2023-08-30T10:37:22;100408.63;;;15.20;100.00
59043;BME280;44826;51.596;5.624;2023-08-30T10:39:49;100404.94;;;15.24;100.00
59043;BME280;44826;51.596;5.624;2023-08-30T10:42:16;100409.91;;;15.28;100.00
59043;BME280;44826;51.596;5.624;2023-08-30T10:44:48;100401.56;;;15.38;100.00
59043;BME280;44826;51.596;5.624;2023-08-30T10:47:24;100399.38;;;15.46;100.00
59043;BME280;44826;51.596;5.624;2023-08-30T10:49:54;100398.88;;;15.55;100.00
59043;BME280;44826;51.596;5.624;2023-08-30T10:52:22;100402.88;;;15.62;98.12
59043;BME280;44826;51.596;5.624;2023-08-30T10:54:49;100401.03;;;15.65;98.04
59043;BME280;44826;51.596;5.624;2023-08-30T10:57:19;100401.78;;;15.67;97.70
59043;BME280;44826;51.596;5.624;2023-08-30T11:00:03;100398.81;;;15.73;98.02
59043;BME280;44826;51.596;5.624;2023-08-30T11:02:29;100390.63;;;15.79;98.59
59043;BME280;44826;51.596;5.624;2023-08-30T11:04:57;100395.41;;;15.88;98.87
59043;BME280;44826;51.596;5.624;2023-08-30T11:07:24;100397.78;;;15.93;97.81
59043;BME280;44826;51.596;5.624;2023-08-30T11:09:51;100395.72;;;15.98;97.66
59043;BME280;44826;51.596;5.624;2023-08-30T11:12:18;100384.88;;;16.04;96.44
59043;BME280;44826;51.596;5.624;2023-08-30T11:14:43;100390.63;;;16.11;96.44
59043;BME280;44826;51.596;5.624;2023-08-30T11:17:11;100392.06;;;16.17;95.82
59043;BME280;44826;51.596;5.624;2023-08-30T11:19:37;100385.06;;;16.17;94.83
59043;BME280;44826;51.596;5.624;2023-08-30T11:22:02;100395.81;;;16.13;91.40
59043;BME280;44826;51.596;5.624;2023-08-30T11:24:28;100404.53;;;16.13;89.94
59043;BME280;44826;51.596;5.624;2023-08-30T11:26:54;100410.09;;;16.23;89.56
59043;BME280;44826;51.596;5.624;2023-08-30T11:29:19;100408.41;;;16.38;91.09
59043;BME280;44826;51.596;5.624;2023-08-30T11:31:44;100401.56;;;16.50;93.01
59043;BME280;44826;51.596;5.624;2023-08-30T11:34:10;100410.91;;;16.56;89.48
59043;BME280;44826;51.596;5.624;2023-08-30T11:36:36;100419.72;;;16.54;87.53
59043;BME280;44826;51.596;5.624;2023-08-30T11:39:02;100430.38;;;16.51;87.57
59043;BME280;44826;51.596;5.624;2023-08-30T11:41:29;100429.88;;;16.45;85.84
59043;BME280;44826;51.596;5.624;2023-08-30T11:43:58;100432.94;;;16.37;83.61
59043;BME280;44826;51.596;5.624;2023-08-30T11:46:23;100432.47;;;16.30;82.66
59043;BME280;44826;51.596;5.624;2023-08-30T11:48:50;100436.34;;;16.23;83.09
59043;BME280;44826;51.596;5.624;2023-08-30T11:51:17;100440.94;;;16.19;83.44
59043;BME280;44826;51.596;5.624;2023-08-30T11:53:44;100436.78;;;16.15;83.28
59043;BME280;44826;51.596;5.624;2023-08-30T11:56:10;100430.09;;;16.10;84.21
59043;BME280;44826;51.596;5.624;2023-08-30T11:58:37;100431.97;;;16.07;83.53
59043;BME280;44826;51.596;5.624;2023-08-30T12:01:03;100436.09;;;16.12;85.64
59043;BME280;44826;51.596;5.624;2023-08-30T12:03:29;100425.19;;;16.19;84.23
59043;BME280;44826;51.596;5.624;2023-08-30T12:05:55;100426.34;;;16.30;83.25
59043;BME280;44826;51.596;5.624;2023-08-30T12:08:24;100422.09;;;16.43;84.53
59043;BME280;44826;51.596;5.624;2023-08-30T12:10:50;100432.72;;;16.56;80.63
59043;BME280;44826;51.596;5.624;2023-08-30T12:13:34;100432.28;;;16.64;82.67
59043;BME280;44826;51.596;5.624;2023-08-30T12:16:01;100431.94;;;16.70;83.23
59043;BME280;44826;51.596;5.624;2023-08-30T12:18:28;100427.25;;;16.75;80.20
59043;BME280;44826;51.596;5.624;2023-08-30T12:20:58;100430.75;;;16.76;77.15
59043;BME280;44826;51.596;5.624;2023-08-30T12:23:27;100435.13;;;16.75;75.86
59043;BME280;44826;51.596;5.624;2023-08-30T12:25:58;100429.16;;;16.73;76.27
59043;BME280;44826;51.596;5.624;2023-08-30T12:28:24;100434.41;;;16.73;74.68
59043;BME280;44826;51.596;5.624;2023-08-30T12:30:49;100441.25;;;16.76;76.42
59043;BME280;44826;51.596;5.624;2023-08-30T12:33:18;100446.41;;;16.77;76.76
59043;BME280;44826;51.596;5.624;2023-08-30T12:35:44;100436.81;;;16.76;76.18
59043;BME280;44826;51.596;5.624;2023-08-30T12:38:09;100450.72;;;16.78;76.72
59043;BME280;44826;51.596;5.624;2023-08-30T12:40:36;100449.78;;;16.79;75.12
59043;BME280;44826;51.596;5.624;2023-08-30T12:43:02;100447.16;;;16.79;75.78
59043;BME280;44826;51.596;5.624;2023-08-30T12:45:27;100440.91;;;16.82;76.70